Main page
METAR-TAF:

METAR-TAF

Airports :

Cambridge, England

Cambridge Airport

latitude: 52-12N, longitude: 000-11E, elevation: 15 m

Current weather observation

The report was made 2 hours and 5 minutes ago, at 16:50 UTC
Wind 8 kt from the East/Northeast
Temperature 12°C
Humidity 67%
Pressure 1024 hPa
Visibility 10 km or more
no clouds below 1500 m and no cumulonimbus

METAR: EGSC 261650Z 07008KT CAVOK 12/06 Q1024

Time: 19:55 (18:55 UTC)

Forecast

The report was made 5 hours and 1 minutes ago, at 13:54 UTC
Forecast valid from 26 at 15 UTC to 26 at 19 UTC
Wind 9 kt from the East
Visibility 10 km or more
no clouds below 1500 m and no cumulonimbus

TAF: EGSC 261354Z 2615/2619 08009KT CAVOK

Weather observations and forecasts of more than 4000 airports (METAR and TAF reports).

The available stations are represented by yellow and red dots on the map.

Hover mouse over dot to see the name of the station.

Then click to see weather observations and forecasts.

To change the map : click on the green buttons with a black cross to zoom in, on the green button with a dash to zoom out, or on the green arrows for adjacent maps.


METAR-TAF: